Terminal Aerodrome Forecast
Issued by NWS

Current Version | Previous Version | Text Only | Print | Product List | Glossary On
Versions: 1 2 3 4 5 6 7 8 9 10 11 12 13 14
682
FTAK31 PAJN 291733
TAFAWG
TAF
PAWG 291733Z 2918/3018 09008KT P6SM OVC100
     FM300000 08011KT P6SM VCSH OVC060
      TEMPO 3001/3005 -RA
     FM300700 VRB05KT P6SM BKN060 BKN100
      AMD LTD TO CLD VIS AND WIND 3006/3015=

USA.gov is the U.S. government's official web portal to all federal, state and local government web resources and services.